Wheatland, ND

8:30 AM CDT on October 20, 2014 (GMT -0500)
Home of the Absaraka Crows | Change Station
CLOSE
Current Station
Personal Weather Station
Location: Absaraka, ND
Elevation: 1066 ft
Nearby Weather Stations

Elev 1066 ft 46.98 °N, 97.39 °W | Updated 5 seconds ago

Clear
Clear
41.4 °F
Feels Like 40 °F
N
3.1
Wind Variable Wind from NW
Gusts 3.1 mph

Today
High -- | Low -- °F
--% Chance of Precip.
Yesterday
High -- | Low -- °F
Precip. -- in
7:54 AM 6:33 PM
Waning Crescent, 11% visible
Pressure 30.07 in
Visibility 10.0 miles
Clouds Clear
Windchill 40 °F
Dew Point 40 °F
Humidity 93%
Rainfall 0.00 in
Snow Depth Not available.
UV 0 out of 12
Pollen 1.40 out of 12
Air Quality Not available.
Flu Activity Local Activity
METAR KFAR 201253Z 33005KT 10SM CLR 03/01 A3005 RMK AO2 SLP182 T00280006

More Conditions Fewer Conditions

Pressure 30.07 in
Visibility 10.0 miles
Clouds Clear
Windchill 40 °F
Dew Point 40 °F
Humidity 93%
Rainfall 0.00 in
Snow Depth Not available.
UV 0 out of 12
Pollen 1.40 out of 12
Air Quality Not available.
Flu Activity Local Activity
METAR KFAR 201253Z 33005KT 10SM CLR 03/01 A3005 RMK AO2 SLP182 T00280006

More Conditions Fewer Conditions

10-Day Weather Forecast

Almanac

Astronomy

Oct. 20, 2014 Rise Set
Actual Time 7:54 AM CDT 6:33 PM CDT
Civil Twilight 7:23 AM CDT 7:04 PM CDT
Nautical Twilight 6:48 AM CDT 7:39 PM CDT
Astronomical Twilight 6:13 AM CDT 8:14 PM CDT
Moon 4:32 AM CDT 5:06 PM CDT
Length of Visible Light 11h 40m
Length of Day
10h 38m
Waning Crescent, 11% of the Moon is Illuminated
Today
Waning Crescent
Oct 23
New
Oct 30
First Quarter
Nov 6
Full
Nov 14
Last Quarter

Today's Extremes

State Highs State Lows

Community

WunderPhotos

Upload Photos

1,763,381 photos uploaded!

Nearby

Snow Depth

Station Depth Elevation
No new snow has been reported.

Earthquake Activity

City Distance Mag. Time & Date
No recent earthquake activity has been reported nearby.
Minimum magnitude displayed is 2.5.

Coastal Water Temperatures

Place Temperature
No Stations Reporting

Nearby Weather Stations